sensor_id;sensor_type;location;lat;lon;timestamp;pressure;altitude;pressure_sealevel;temperature;humidity
46081;BME280;31821;51.880;-0.518;2022-09-13T00:01:41;100138.09;;;27.13;39.88
46081;BME280;31821;51.880;-0.518;2022-09-13T00:04:06;100203.38;;;27.54;40.35
46081;BME280;31821;51.880;-0.518;2022-09-13T00:06:32;100189.78;;;27.45;39.81
46081;BME280;31821;51.880;-0.518;2022-09-13T00:08:58;100190.91;;;27.51;40.15
46081;BME280;31821;51.880;-0.518;2022-09-13T00:11:27;100200.13;;;27.55;40.16
46081;BME280;31821;51.880;-0.518;2022-09-13T00:13:54;100148.19;;;27.15;40.52
46081;BME280;31821;51.880;-0.518;2022-09-13T00:16:23;100196.59;;;27.48;39.79
46081;BME280;31821;51.880;-0.518;2022-09-13T00:18:49;100168.19;;;27.27;39.95
46081;BME280;31821;51.880;-0.518;2022-09-13T00:21:17;100183.69;;;27.43;40.14
46081;BME280;31821;51.880;-0.518;2022-09-13T00:23:45;100171.34;;;27.33;39.85
46081;BME280;31821;51.880;-0.518;2022-09-13T00:26:13;100190.94;;;27.48;39.97
46081;BME280;31821;51.880;-0.518;2022-09-13T00:28:39;100203.44;;;27.50;39.50
46081;BME280;31821;51.880;-0.518;2022-09-13T00:31:07;100202.63;;;27.50;39.68
46081;BME280;31821;51.880;-0.518;2022-09-13T00:33:33;100209.59;;;27.45;40.26
46081;BME280;31821;51.880;-0.518;2022-09-13T00:36:03;100218.84;;;27.49;39.85
46081;BME280;31821;51.880;-0.518;2022-09-13T00:38:29;100192.31;;;27.36;40.04
46081;BME280;31821;51.880;-0.518;2022-09-13T00:40:54;100180.69;;;27.30;39.65
46081;BME280;31821;51.880;-0.518;2022-09-13T00:43:37;100203.13;;;27.45;39.75
46081;BME280;31821;51.880;-0.518;2022-09-13T00:46:04;100179.94;;;27.26;39.97
46081;BME280;31821;51.880;-0.518;2022-09-13T00:48:31;100181.91;;;27.29;39.86
46081;BME280;31821;51.880;-0.518;2022-09-13T00:50:59;100187.41;;;27.40;40.36
46081;BME280;31821;51.880;-0.518;2022-09-13T00:53:38;100185.63;;;27.22;40.16
46081;BME280;31821;51.880;-0.518;2022-09-13T00:56:08;100203.50;;;27.19;40.02
46081;BME280;31821;51.880;-0.518;2022-09-13T00:58:39;100173.78;;;27.04;40.30
46081;BME280;31821;51.880;-0.518;2022-09-13T01:01:10;100205.41;;;27.26;39.84
46081;BME280;31821;51.880;-0.518;2022-09-13T01:03:37;100196.59;;;27.20;39.97
46081;BME280;31821;51.880;-0.518;2022-09-13T01:06:13;100187.84;;;27.11;39.69
46081;BME280;31821;51.880;-0.518;2022-09-13T01:08:41;100197.91;;;27.12;39.90
46081;BME280;31821;51.880;-0.518;2022-09-13T01:11:11;100217.13;;;27.24;40.11
46081;BME280;31821;51.880;-0.518;2022-09-13T01:13:41;100213.56;;;27.20;40.11
46081;BME280;31821;51.880;-0.518;2022-09-13T01:16:07;100194.03;;;27.02;40.31
46081;BME280;31821;51.880;-0.518;2022-09-13T01:18:33;100200.19;;;26.93;40.11
46081;BME280;31821;51.880;-0.518;2022-09-13T01:29:06;100219.03;;;27.04;40.56
46081;BME280;31821;51.880;-0.518;2022-09-13T01:37:27;100209.34;;;27.05;40.06
46081;BME280;31821;51.880;-0.518;2022-09-13T01:46:38;100206.94;;;27.03;40.12
46081;BME280;31821;51.880;-0.518;2022-09-13T01:48:53;100132.41;;;26.55;40.52
46081;BME280;31821;51.880;-0.518;2022-09-13T01:51:27;100203.28;;;27.03;40.13
46081;BME280;31821;51.880;-0.518;2022-09-13T01:54:50;100192.84;;;27.00;40.23
46081;BME280;31821;51.880;-0.518;2022-09-13T01:59:56;100158.41;;;26.74;40.14
46081;BME280;31821;51.880;-0.518;2022-09-13T02:05:13;100171.72;;;26.77;40.33
46081;BME280;31821;51.880;-0.518;2022-09-13T02:07:42;100177.72;;;26.83;40.34
46081;BME280;31821;51.880;-0.518;2022-09-13T02:10:28;100132.03;;;26.53;40.20
46081;BME280;31821;51.880;-0.518;2022-09-13T02:12:57;100186.59;;;26.85;40.47
46081;BME280;31821;51.880;-0.518;2022-09-13T02:15:32;100196.97;;;26.91;40.43
46081;BME280;31821;51.880;-0.518;2022-09-13T02:18:04;100181.41;;;26.79;40.63
46081;BME280;31821;51.880;-0.518;2022-09-13T02:20:36;100194.97;;;26.92;40.14
46081;BME280;31821;51.880;-0.518;2022-09-13T02:23:16;100171.31;;;26.78;40.13
46081;BME280;31821;51.880;-0.518;2022-09-13T02:25:43;100177.28;;;26.84;40.24
46081;BME280;31821;51.880;-0.518;2022-09-13T02:28:12;100158.91;;;26.69;40.26
46081;BME280;31821;51.880;-0.518;2022-09-13T02:30:42;100144.09;;;26.57;39.95
46081;BME280;31821;51.880;-0.518;2022-09-13T02:33:16;100164.50;;;26.72;40.33
46081;BME280;31821;51.880;-0.518;2022-09-13T02:35:51;100192.25;;;26.85;40.16
46081;BME280;31821;51.880;-0.518;2022-09-13T02:38:23;100174.22;;;26.71;39.90
46081;BME280;31821;51.880;-0.518;2022-09-13T02:40:59;100183.47;;;26.75;40.36
46081;BME280;31821;51.880;-0.518;2022-09-13T02:43:31;100178.31;;;26.66;40.11
46081;BME280;31821;51.880;-0.518;2022-09-13T02:46:11;100193.16;;;26.78;40.28
46081;BME280;31821;51.880;-0.518;2022-09-13T02:48:49;100180.31;;;26.66;40.23
46081;BME280;31821;51.880;-0.518;2022-09-13T02:51:34;100198.31;;;26.83;40.38
46081;BME280;31821;51.880;-0.518;2022-09-13T02:54:26;100175.47;;;26.66;40.19
46081;BME280;31821;51.880;-0.518;2022-09-13T02:56:59;100194.34;;;26.77;40.29
46081;BME280;31821;51.880;-0.518;2022-09-13T02:59:28;100134.25;;;26.38;40.00
46081;BME280;31821;51.880;-0.518;2022-09-13T03:02:04;100201.13;;;26.83;40.18
46081;BME280;31821;51.880;-0.518;2022-09-13T03:04:31;100151.97;;;26.42;40.00
46081;BME280;31821;51.880;-0.518;2022-09-13T03:06:57;100204.53;;;26.71;40.33
46081;BME280;31821;51.880;-0.518;2022-09-13T03:09:22;100193.94;;;26.78;40.26
46081;BME280;31821;51.880;-0.518;2022-09-13T03:12:10;100196.75;;;26.78;40.34
46081;BME280;31821;51.880;-0.518;2022-09-13T03:25:09;100198.47;;;26.69;40.26
46081;BME280;31821;51.880;-0.518;2022-09-13T03:27:51;100187.22;;;26.65;40.21
46081;BME280;31821;51.880;-0.518;2022-09-13T03:30:20;100167.13;;;26.56;40.32
46081;BME280;31821;51.880;-0.518;2022-09-13T03:38:10;100188.44;;;26.64;40.72
46081;BME280;31821;51.880;-0.518;2022-09-13T03:40:48;100192.50;;;26.63;40.08
46081;BME280;31821;51.880;-0.518;2022-09-13T03:45:48;100193.63;;;26.69;40.19
46081;BME280;31821;51.880;-0.518;2022-09-13T03:48:16;100177.63;;;26.55;40.29
46081;BME280;31821;51.880;-0.518;2022-09-13T03:50:44;100136.03;;;26.25;40.04
46081;BME280;31821;51.880;-0.518;2022-09-13T03:53:13;100163.69;;;26.41;39.96
46081;BME280;31821;51.880;-0.518;2022-09-13T03:55:41;100158.47;;;26.39;40.22
46081;BME280;31821;51.880;-0.518;2022-09-13T03:58:16;100196.53;;;26.62;40.05
46081;BME280;31821;51.880;-0.518;2022-09-13T04:00:43;100186.22;;;26.48;40.22
46081;BME280;31821;51.880;-0.518;2022-09-13T04:03:09;100201.75;;;26.63;40.35
46081;BME280;31821;51.880;-0.518;2022-09-13T04:05:35;100187.28;;;26.58;39.93
46081;BME280;31821;51.880;-0.518;2022-09-13T04:08:02;100157.34;;;26.33;40.22
46081;BME280;31821;51.880;-0.518;2022-09-13T04:10:30;100201.38;;;26.61;39.88
46081;BME280;31821;51.880;-0.518;2022-09-13T04:12:56;100187.78;;;26.53;40.25
46081;BME280;31821;51.880;-0.518;2022-09-13T04:15:22;100197.84;;;26.54;39.92
46081;BME280;31821;51.880;-0.518;2022-09-13T04:17:49;100176.72;;;26.31;40.23
46081;BME280;31821;51.880;-0.518;2022-09-13T04:20:14;100206.03;;;26.44;40.14
46081;BME280;31821;51.880;-0.518;2022-09-13T04:22:40;100226.47;;;26.56;39.99
46081;BME280;31821;51.880;-0.518;2022-09-13T04:25:07;100213.31;;;26.45;40.18
46081;BME280;31821;51.880;-0.518;2022-09-13T04:27:32;100178.41;;;26.25;39.92
46081;BME280;31821;51.880;-0.518;2022-09-13T04:30:00;100218.00;;;26.56;40.15
46081;BME280;31821;51.880;-0.518;2022-09-13T04:32:27;100195.56;;;26.41;40.34
46081;BME280;31821;51.880;-0.518;2022-09-13T04:34:54;100218.09;;;26.48;40.09
46081;BME280;31821;51.880;-0.518;2022-09-13T04:37:19;100223.00;;;26.41;40.39
46081;BME280;31821;51.880;-0.518;2022-09-13T04:39:45;100222.66;;;26.39;40.21
46081;BME280;31821;51.880;-0.518;2022-09-13T04:42:11;100224.22;;;26.43;40.08
46081;BME280;31821;51.880;-0.518;2022-09-13T04:44:37;100188.56;;;26.18;40.25
46081;BME280;31821;51.880;-0.518;2022-09-13T04:47:03;100225.81;;;26.44;40.43
46081;BME280;31821;51.880;-0.518;2022-09-13T04:49:29;100235.44;;;26.50;39.92
46081;BME280;31821;51.880;-0.518;2022-09-13T04:51:54;100190.13;;;26.23;39.86
46081;BME280;31821;51.880;-0.518;2022-09-13T04:54:19;100201.41;;;26.23;40.36
46081;BME280;31821;51.880;-0.518;2022-09-13T04:56:46;100193.81;;;26.16;40.27
46081;BME280;31821;51.880;-0.518;2022-09-13T04:59:12;100219.88;;;26.31;39.98
46081;BME280;31821;51.880;-0.518;2022-09-13T05:01:38;100226.31;;;26.35;40.18
46081;BME280;31821;51.880;-0.518;2022-09-13T05:04:05;100204.28;;;26.19;39.80
46081;BME280;31821;51.880;-0.518;2022-09-13T05:06:30;100235.13;;;26.41;40.06
46081;BME280;31821;51.880;-0.518;2022-09-13T05:08:56;100235.25;;;26.30;40.16
46081;BME280;31821;51.880;-0.518;2022-09-13T05:11:23;100227.66;;;26.20;39.89
46081;BME280;31821;51.880;-0.518;2022-09-13T05:13:54;100211.22;;;26.11;39.58
46081;BME280;31821;51.880;-0.518;2022-09-13T05:16:22;100210.84;;;26.05;40.45
46081;BME280;31821;51.880;-0.518;2022-09-13T05:18:48;100249.38;;;26.30;40.35
46081;BME280;31821;51.880;-0.518;2022-09-13T05:21:13;100215.31;;;26.03;40.41
46081;BME280;31821;51.880;-0.518;2022-09-13T05:23:39;100226.16;;;26.08;40.41
46081;BME280;31821;51.880;-0.518;2022-09-13T05:26:05;100192.19;;;25.73;40.46
46081;BME280;31821;51.880;-0.518;2022-09-13T05:28:33;100265.69;;;26.08;40.21
46081;BME280;31821;51.880;-0.518;2022-09-13T05:31:07;100256.81;;;26.13;40.44
46081;BME280;31821;51.880;-0.518;2022-09-13T05:33:36;100217.84;;;25.90;40.31
46081;BME280;31821;51.880;-0.518;2022-09-13T05:36:03;100232.31;;;25.96;40.21
46081;BME280;31821;51.880;-0.518;2022-09-13T05:38:28;100269.72;;;26.11;40.24
46081;BME280;31821;51.880;-0.518;2022-09-13T05:40:58;100267.72;;;26.11;40.75
46081;BME280;31821;51.880;-0.518;2022-09-13T05:43:25;100256.84;;;26.10;39.89
46081;BME280;31821;51.880;-0.518;2022-09-13T05:45:50;100248.34;;;26.06;40.57
46081;BME280;31821;51.880;-0.518;2022-09-13T05:48:16;100247.13;;;26.07;40.19
46081;BME280;31821;51.880;-0.518;2022-09-13T05:50:42;100216.66;;;25.87;40.26
46081;BME280;31821;51.880;-0.518;2022-09-13T05:53:07;100258.81;;;26.13;39.77
46081;BME280;31821;51.880;-0.518;2022-09-13T05:55:33;100216.25;;;25.89;40.26
46081;BME280;31821;51.880;-0.518;2022-09-13T05:58:02;100240.34;;;26.01;39.78
46081;BME280;31821;51.880;-0.518;2022-09-13T06:00:28;100238.00;;;25.92;39.60
46081;BME280;31821;51.880;-0.518;2022-09-13T06:02:54;100258.03;;;26.12;39.87
46081;BME280;31821;51.880;-0.518;2022-09-13T06:05:20;100252.00;;;26.07;39.85
46081;BME280;31821;51.880;-0.518;2022-09-13T06:07:45;100229.22;;;25.83;39.92
46081;BME280;31821;51.880;-0.518;2022-09-13T06:10:11;100271.84;;;25.99;40.19
46081;BME280;31821;51.880;-0.518;2022-09-13T06:12:37;100280.63;;;26.09;39.71
46081;BME280;31821;51.880;-0.518;2022-09-13T06:15:03;100257.78;;;25.88;39.64
46081;BME280;31821;51.880;-0.518;2022-09-13T06:17:29;100276.19;;;26.08;39.81
46081;BME280;31821;51.880;-0.518;2022-09-13T06:19:54;100262.97;;;25.97;39.65
46081;BME280;31821;51.880;-0.518;2022-09-13T06:22:21;100244.97;;;25.80;39.71
46081;BME280;31821;51.880;-0.518;2022-09-13T06:24:47;100240.94;;;25.81;39.66
46081;BME280;31821;51.880;-0.518;2022-09-13T06:27:12;100259.00;;;25.87;39.45
46081;BME280;31821;51.880;-0.518;2022-09-13T06:29:38;100277.50;;;25.99;39.51
46081;BME280;31821;51.880;-0.518;2022-09-13T06:32:03;100252.56;;;25.87;39.68
46081;BME280;31821;51.880;-0.518;2022-09-13T06:34:29;100249.75;;;25.87;39.61
46081;BME280;31821;51.880;-0.518;2022-09-13T06:36:54;100247.78;;;25.80;39.91
46081;BME280;31821;51.880;-0.518;2022-09-13T06:39:20;100264.59;;;25.95;39.08
46081;BME280;31821;51.880;-0.518;2022-09-13T06:41:45;100253.84;;;25.79;39.62
46081;BME280;31821;51.880;-0.518;2022-09-13T06:44:11;100268.63;;;25.97;39.65
46081;BME280;31821;51.880;-0.518;2022-09-13T06:46:37;100243.34;;;25.79;39.57
46081;BME280;31821;51.880;-0.518;2022-09-13T06:49:05;100259.44;;;25.86;39.58
46081;BME280;31821;51.880;-0.518;2022-09-13T06:51:32;100271.88;;;25.92;39.75
46081;BME280;31821;51.880;-0.518;2022-09-13T06:53:58;100270.66;;;25.93;39.58
46081;BME280;31821;51.880;-0.518;2022-09-13T06:56:29;100260.59;;;25.92;39.92
46081;BME280;31821;51.880;-0.518;2022-09-13T06:58:57;100254.94;;;25.92;39.57
46081;BME280;31821;51.880;-0.518;2022-09-13T07:01:26;100246.16;;;25.83;39.23
46081;BME280;31821;51.880;-0.518;2022-09-13T07:03:57;100227.34;;;25.65;39.31
46081;BME280;31821;51.880;-0.518;2022-09-13T07:06:25;100270.28;;;25.91;39.38
46081;BME280;31821;51.880;-0.518;2022-09-13T07:08:54;100239.78;;;25.71;39.30
46081;BME280;31821;51.880;-0.518;2022-09-13T07:11:22;100275.56;;;25.89;39.29
46081;BME280;31821;51.880;-0.518;2022-09-13T07:13:53;100230.56;;;25.67;39.23
46081;BME280;31821;51.880;-0.518;2022-09-13T07:16:20;100267.88;;;25.89;39.13
46081;BME280;31821;51.880;-0.518;2022-09-13T07:18:50;100260.66;;;25.85;38.75
46081;BME280;31821;51.880;-0.518;2022-09-13T07:21:17;100251.81;;;25.79;39.43
46081;BME280;31821;51.880;-0.518;2022-09-13T07:23:43;100237.03;;;25.64;39.34
46081;BME280;31821;51.880;-0.518;2022-09-13T07:26:09;100243.06;;;25.66;38.91
46081;BME280;31821;51.880;-0.518;2022-09-13T07:28:40;100144.28;;;25.10;39.04
46081;BME280;31821;51.880;-0.518;2022-09-13T07:31:12;100271.09;;;25.92;39.08
46081;BME280;31821;51.880;-0.518;2022-09-13T07:33:40;100229.66;;;25.78;38.73
46081;BME280;31821;51.880;-0.518;2022-09-13T07:36:07;100211.22;;;25.62;39.25
46081;BME280;31821;51.880;-0.518;2022-09-13T07:38:37;100279.47;;;26.02;39.07
46081;BME280;31821;51.880;-0.518;2022-09-13T07:41:04;100259.41;;;25.89;38.96
46081;BME280;31821;51.880;-0.518;2022-09-13T07:43:32;100206.38;;;25.66;39.08
46081;BME280;31821;51.880;-0.518;2022-09-13T07:46:05;100240.78;;;25.99;38.70
46081;BME280;31821;51.880;-0.518;2022-09-13T07:48:32;100241.91;;;26.05;38.23
46081;BME280;31821;51.880;-0.518;2022-09-13T07:51:00;100195.75;;;25.81;38.10
46081;BME280;31821;51.880;-0.518;2022-09-13T07:53:27;100215.78;;;25.94;38.44
46081;BME280;31821;51.880;-0.518;2022-09-13T07:56:18;100213.44;;;25.85;38.01
46081;BME280;31821;51.880;-0.518;2022-09-13T07:58:45;100242.31;;;26.08;38.14
46081;BME280;31821;51.880;-0.518;2022-09-13T08:01:28;100247.13;;;26.14;38.31
46081;BME280;31821;51.880;-0.518;2022-09-13T08:03:59;100211.38;;;25.93;38.35
46081;BME280;31821;51.880;-0.518;2022-09-13T08:06:27;100235.03;;;26.10;38.46
46081;BME280;31821;51.880;-0.518;2022-09-13T08:08:53;100241.13;;;26.01;36.27
46081;BME280;31821;51.880;-0.518;2022-09-13T08:11:31;100237.16;;;25.46;32.45
46081;BME280;31821;51.880;-0.518;2022-09-13T08:14:00;100237.22;;;25.32;34.09
46081;BME280;31821;51.880;-0.518;2022-09-13T08:16:28;100232.47;;;25.18;33.47
46081;BME280;31821;51.880;-0.518;2022-09-13T08:18:56;100197.56;;;24.86;34.02
46081;BME280;31821;51.880;-0.518;2022-09-13T08:21:23;100237.00;;;25.01;34.10
46081;BME280;31821;51.880;-0.518;2022-09-13T08:23:48;100211.34;;;24.59;34.11
46081;BME280;31821;51.880;-0.518;2022-09-13T08:26:15;100189.72;;;24.30;34.13
46081;BME280;31821;51.880;-0.518;2022-09-13T08:28:41;100226.66;;;24.54;34.41
46081;BME280;31821;51.880;-0.518;2022-09-13T08:31:09;100236.78;;;24.33;34.00
46081;BME280;31821;51.880;-0.518;2022-09-13T08:33:35;100221.09;;;24.32;33.38
46081;BME280;31821;51.880;-0.518;2022-09-13T08:36:03;100130.69;;;23.80;34.36
46081;BME280;31821;51.880;-0.518;2022-09-13T08:38:29;100200.63;;;24.07;33.91
46081;BME280;31821;51.880;-0.518;2022-09-13T08:40:58;100177.31;;;23.95;34.96
46081;BME280;31821;51.880;-0.518;2022-09-13T08:46:20;100199.00;;;23.91;34.14
46081;BME280;31821;51.880;-0.518;2022-09-13T08:48:51;100168.84;;;23.55;35.20
46081;BME280;31821;51.880;-0.518;2022-09-13T08:51:27;100200.63;;;23.81;35.42
46081;BME280;31821;51.880;-0.518;2022-09-13T08:53:54;100233.59;;;23.84;34.91
46081;BME280;31821;51.880;-0.518;2022-09-13T08:56:28;100218.31;;;23.85;34.67
46081;BME280;31821;51.880;-0.518;2022-09-13T09:02:36;100240.41;;;23.94;35.04
46081;BME280;31821;51.880;-0.518;2022-09-13T09:05:24;100189.75;;;23.47;34.71
46081;BME280;31821;51.880;-0.518;2022-09-13T09:10:29;100233.16;;;23.35;35.75
46081;BME280;31821;51.880;-0.518;2022-09-13T09:13:02;100275.81;;;23.63;35.61
46081;BME280;31821;51.880;-0.518;2022-09-13T09:15:37;100178.44;;;23.15;35.90
46081;BME280;31821;51.880;-0.518;2022-09-13T09:18:26;100265.38;;;23.74;35.67
46081;BME280;31821;51.880;-0.518;2022-09-13T09:20:55;100262.53;;;23.67;35.76
46081;BME280;31821;51.880;-0.518;2022-09-13T09:25:53;100207.03;;;23.35;35.54
46081;BME280;31821;51.880;-0.518;2022-09-13T09:28:20;100268.97;;;23.71;35.16
46081;BME280;31821;51.880;-0.518;2022-09-13T09:34:14;100242.84;;;23.70;35.59
46081;BME280;31821;51.880;-0.518;2022-09-13T09:36:51;100167.22;;;23.22;35.79
46081;BME280;31821;51.880;-0.518;2022-09-13T09:39:21;100202.66;;;23.59;35.46
46081;BME280;31821;51.880;-0.518;2022-09-13T09:41:50;100249.66;;;23.62;35.79
46081;BME280;31821;51.880;-0.518;2022-09-13T09:47:11;100242.84;;;23.92;35.04
46081;BME280;31821;51.880;-0.518;2022-09-13T09:50:03;100245.69;;;23.96;35.87
46081;BME280;31821;51.880;-0.518;2022-09-13T09:53:00;100248.06;;;23.79;35.93
46081;BME280;31821;51.880;-0.518;2022-09-13T09:55:30;100246.06;;;23.94;34.79
46081;BME280;31821;51.880;-0.518;2022-09-13T09:57:57;100240.84;;;23.93;35.24
46081;BME280;31821;51.880;-0.518;2022-09-13T10:00:28;100190.19;;;23.60;35.59
46081;BME280;31821;51.880;-0.518;2022-09-13T10:02:58;100198.63;;;23.60;35.00
46081;BME280;31821;51.880;-0.518;2022-09-13T10:05:26;100240.44;;;23.80;35.59
46081;BME280;31821;51.880;-0.518;2022-09-13T10:08:03;100203.44;;;23.63;34.96
46081;BME280;31821;51.880;-0.518;2022-09-13T10:10:39;100231.59;;;23.81;35.51
46081;BME280;31821;51.880;-0.518;2022-09-13T10:13:14;100231.97;;;23.91;34.80
46081;BME280;31821;51.880;-0.518;2022-09-13T10:16:04;100185.75;;;23.48;35.59
46081;BME280;31821;51.880;-0.518;2022-09-13T10:18:32;100228.38;;;23.90;34.83
46081;BME280;31821;51.880;-0.518;2022-09-13T10:21:00;100222.75;;;23.90;36.14
46081;BME280;31821;51.880;-0.518;2022-09-13T10:23:26;100207.06;;;23.75;35.42
46081;BME280;31821;51.880;-0.518;2022-09-13T10:28:42;100199.41;;;23.86;35.40
46081;BME280;31821;51.880;-0.518;2022-09-13T10:31:11;100148.38;;;23.58;35.70
46081;BME280;31821;51.880;-0.518;2022-09-13T10:36:11;100204.25;;;23.96;35.73
46081;BME280;31821;51.880;-0.518;2022-09-13T10:38:40;100205.06;;;24.08;36.11
46081;BME280;31821;51.880;-0.518;2022-09-13T10:41:20;100209.88;;;24.07;34.73
46081;BME280;31821;51.880;-0.518;2022-09-13T10:43:49;100164.03;;;23.81;34.90
46081;BME280;31821;51.880;-0.518;2022-09-13T10:46:22;100182.13;;;23.73;34.93
46081;BME280;31821;51.880;-0.518;2022-09-13T10:48:48;100197.78;;;23.92;35.26
46081;BME280;31821;51.880;-0.518;2022-09-13T10:51:28;100218.75;;;24.02;34.36
46081;BME280;31821;51.880;-0.518;2022-09-13T10:54:24;100097.31;;;23.17;34.47
46081;BME280;31821;51.880;-0.518;2022-09-13T10:56:50;100178.91;;;23.53;34.57
46081;BME280;31821;51.880;-0.518;2022-09-13T10:59:23;100227.19;;;24.02;35.21
46081;BME280;31821;51.880;-0.518;2022-09-13T11:21:12;100242.75;;;24.57;33.49
46081;BME280;31821;51.880;-0.518;2022-09-13T11:26:43;100241.53;;;24.76;33.02
46081;BME280;31821;51.880;-0.518;2022-09-13T11:43:22;100229.81;;;24.81;32.83
46081;BME280;31821;51.880;-0.518;2022-09-13T11:46:13;100243.84;;;25.00;33.42
46081;BME280;31821;51.880;-0.518;2022-09-13T11:56:30;100258.72;;;25.00;33.54
46081;BME280;31821;51.880;-0.518;2022-09-13T11:59:09;100260.31;;;25.12;32.46
46081;BME280;31821;51.880;-0.518;2022-09-13T12:01:54;100221.72;;;24.91;33.20
46081;BME280;31821;51.880;-0.518;2022-09-13T12:04:24;100256.63;;;25.19;33.19
46081;BME280;31821;51.880;-0.518;2022-09-13T12:07:24;100260.22;;;25.23;32.20
46081;BME280;31821;51.880;-0.518;2022-09-13T12:10:02;100211.25;;;24.95;33.31
46081;BME280;31821;51.880;-0.518;2022-09-13T12:12:32;100259.41;;;25.26;32.85
46081;BME280;31821;51.880;-0.518;2022-09-13T12:17:45;100255.00;;;25.25;31.99
46081;BME280;31821;51.880;-0.518;2022-09-13T12:20:52;100264.25;;;25.22;32.88
46081;BME280;31821;51.880;-0.518;2022-09-13T12:23:18;100250.22;;;25.11;32.64
46081;BME280;31821;51.880;-0.518;2022-09-13T12:25:57;100263.44;;;25.28;33.01
46081;BME280;31821;51.880;-0.518;2022-09-13T12:28:38;100260.56;;;25.36;32.29
46081;BME280;31821;51.880;-0.518;2022-09-13T12:31:17;100262.56;;;25.39;32.83
46081;BME280;31821;51.880;-0.518;2022-09-13T12:33:45;100245.66;;;25.35;32.84
46081;BME280;31821;51.880;-0.518;2022-09-13T12:39:17;100255.72;;;25.43;32.39
46081;BME280;31821;51.880;-0.518;2022-09-13T12:42:05;100226.28;;;25.45;32.55
46081;BME280;31821;51.880;-0.518;2022-09-13T12:53:03;100231.00;;;25.58;31.95
46081;BME280;31821;51.880;-0.518;2022-09-13T12:55:53;100244.69;;;25.64;32.92
46081;BME280;31821;51.880;-0.518;2022-09-13T13:03:28;100232.19;;;25.61;32.79
46081;BME280;31821;51.880;-0.518;2022-09-13T13:08:50;100233.00;;;25.62;32.82
46081;BME280;31821;51.880;-0.518;2022-09-13T13:11:22;100184.00;;;25.41;33.11
46081;BME280;31821;51.880;-0.518;2022-09-13T13:13:57;100213.22;;;25.65;33.41
46081;BME280;31821;51.880;-0.518;2022-09-13T13:16:30;100216.06;;;25.65;33.32
46081;BME280;31821;51.880;-0.518;2022-09-13T13:19:01;100172.38;;;25.24;32.88
46081;BME280;31821;51.880;-0.518;2022-09-13T13:21:37;100209.22;;;25.59;33.46
46081;BME280;31821;51.880;-0.518;2022-09-13T13:26:55;100191.59;;;25.48;33.07
46081;BME280;31821;51.880;-0.518;2022-09-13T13:29:31;100199.97;;;25.58;33.25
46081;BME280;31821;51.880;-0.518;2022-09-13T13:34:40;100188.25;;;25.64;33.05
46081;BME280;31821;51.880;-0.518;2022-09-13T13:39:44;100199.47;;;25.71;33.33
46081;BME280;31821;51.880;-0.518;2022-09-13T13:42:28;100199.97;;;25.58;33.45
46081;BME280;31821;51.880;-0.518;2022-09-13T13:45:23;100195.94;;;25.60;33.11
46081;BME280;31821;51.880;-0.518;2022-09-13T13:48:11;100174.22;;;25.53;32.65
46081;BME280;31821;51.880;-0.518;2022-09-13T13:53:37;100198.69;;;25.67;33.13
46081;BME280;31821;51.880;-0.518;2022-09-13T13:56:28;100176.50;;;25.69;32.36
46081;BME280;31821;51.880;-0.518;2022-09-13T13:59:08;100192.53;;;25.79;32.57
46081;BME280;31821;51.880;-0.518;2022-09-13T14:01:43;100149.59;;;25.57;32.95
46081;BME280;31821;51.880;-0.518;2022-09-13T14:04:33;100173.56;;;25.80;32.79
46081;BME280;31821;51.880;-0.518;2022-09-13T14:07:15;100176.38;;;25.83;33.31
46081;BME280;31821;51.880;-0.518;2022-09-13T14:10:03;100133.81;;;25.63;33.44
46081;BME280;31821;51.880;-0.518;2022-09-13T14:21:02;100141.75;;;25.76;33.57
46081;BME280;31821;51.880;-0.518;2022-09-13T14:23:29;100128.09;;;25.70;33.58
46081;BME280;31821;51.880;-0.518;2022-09-13T14:25:57;100134.94;;;25.69;33.24
46081;BME280;31821;51.880;-0.518;2022-09-13T14:28:23;100153.75;;;25.87;33.14
46081;BME280;31821;51.880;-0.518;2022-09-13T14:30:57;100142.03;;;25.88;33.38
46081;BME280;31821;51.880;-0.518;2022-09-13T14:33:29;100147.63;;;25.92;33.21
46081;BME280;31821;51.880;-0.518;2022-09-13T14:36:05;100146.06;;;25.87;33.43
46081;BME280;31821;51.880;-0.518;2022-09-13T14:38:35;100122.09;;;25.65;33.38
46081;BME280;31821;51.880;-0.518;2022-09-13T14:41:28;100145.28;;;25.87;33.50
46081;BME280;31821;51.880;-0.518;2022-09-13T14:43:47;100122.81;;;25.72;33.49
46081;BME280;31821;51.880;-0.518;2022-09-13T14:48:47;100137.69;;;25.80;33.64
46081;BME280;31821;51.880;-0.518;2022-09-13T14:51:33;100136.84;;;25.83;33.53
46081;BME280;31821;51.880;-0.518;2022-09-13T14:56:41;100082.41;;;25.41;33.85
46081;BME280;31821;51.880;-0.518;2022-09-13T14:59:20;100132.47;;;25.75;33.12
46081;BME280;31821;51.880;-0.518;2022-09-13T15:01:49;100134.47;;;25.78;34.10
46081;BME280;31821;51.880;-0.518;2022-09-13T15:04:16;100134.03;;;25.80;33.84
46081;BME280;31821;51.880;-0.518;2022-09-13T15:06:42;100135.66;;;25.81;33.85
46081;BME280;31821;51.880;-0.518;2022-09-13T15:11:40;100123.19;;;25.78;33.24
46081;BME280;31821;51.880;-0.518;2022-09-13T15:17:08;100126.34;;;25.84;33.10
46081;BME280;31821;51.880;-0.518;2022-09-13T15:19:42;100117.00;;;25.91;33.90
46081;BME280;31821;51.880;-0.518;2022-09-13T15:22:40;100126.22;;;25.95;33.85
46081;BME280;31821;51.880;-0.518;2022-09-13T15:25:35;100102.59;;;25.81;33.29
46081;BME280;31821;51.880;-0.518;2022-09-13T15:28:01;100087.81;;;25.66;33.66
46081;BME280;31821;51.880;-0.518;2022-09-13T15:30:29;100122.22;;;25.92;33.65
46081;BME280;31821;51.880;-0.518;2022-09-13T15:35:37;100118.63;;;25.92;33.36
46081;BME280;31821;51.880;-0.518;2022-09-13T15:43:35;100111.44;;;25.83;33.45
46081;BME280;31821;51.880;-0.518;2022-09-13T15:46:00;100020.00;;;25.32;33.97
46081;BME280;31821;51.880;-0.518;2022-09-13T15:48:35;100077.72;;;25.69;33.75
46081;BME280;31821;51.880;-0.518;2022-09-13T15:53:34;100104.97;;;25.83;34.01
46081;BME280;31821;51.880;-0.518;2022-09-13T15:56:01;100101.28;;;25.89;33.92